AFL750 UWGG-UMMS
Flight info
| Callsign | AFL750 |
|---|---|
| Flight time | 1h 47m |
| Altitude | 34000 |
| Route | LARNO2S LARNO T784 IBROT M864 TEKBO N858 NATLO L856 GODBI L736 ASKIL M863 RUHAL RUHAL2E |
| Aircraft | A20N/M-SDE2E3FGHIRWXY/LB1 |
Departure
| Time | 2026-05-09 11:56 |
|---|---|
| Airport | Nizhny Novgorod / Strigino International Airport (UWGG) |
Arrival
| Time | 2026-05-09 13:43 |
|---|---|
| Airport | Minsk National Airport (UMMS) |
| Time | Latitude | Longitude | Altitude | Speed | Heading |
|---|---|---|---|---|---|
| 2026-05-09 11:06 | 56.21905 | 43.78836 | 266 ft | 0 kts | 101° |
| 2026-05-09 11:35 | 56.21908 | 43.78813 | 265 ft | 2 kts | 101° |
| 2026-05-09 11:35 | 56.21911 | 43.78784 | 265 ft | 2 kts | 106° |
| 2026-05-09 11:35 | 56.21915 | 43.78755 | 265 ft | 2 kts | 101° |
| 2026-05-09 11:35 | 56.21919 | 43.78726 | 265 ft | 2 kts | 122° |
| 2026-05-09 11:36 | 56.21932 | 43.78707 | 266 ft | 2 kts | 164° |
| 2026-05-09 11:36 | 56.21947 | 43.78707 | 266 ft | 2 kts | 190° |
| 2026-05-09 11:36 | 56.21951 | 43.78709 | 266 ft | 0 kts | 188° |
| 2026-05-09 11:46 | 56.21937 | 43.78699 | 266 ft | 3 kts | 206° |
| 2026-05-09 11:47 | 56.21930 | 43.78685 | 266 ft | 0 kts | 228° |
| 2026-05-09 11:47 | 56.21928 | 43.78679 | 266 ft | 2 kts | 232° |
| 2026-05-09 11:47 | 56.21917 | 43.78643 | 266 ft | 5 kts | 247° |
| 2026-05-09 11:48 | 56.21916 | 43.78567 | 266 ft | 7 kts | 277° |
| 2026-05-09 11:48 | 56.21928 | 43.78462 | 266 ft | 10 kts | 282° |
| 2026-05-09 11:48 | 56.21929 | 43.78445 | 266 ft | 0 kts | 281° |
| 2026-05-09 11:49 | 56.21930 | 43.78438 | 266 ft | 2 kts | 281° |
| 2026-05-09 11:49 | 56.21931 | 43.78429 | 266 ft | 0 kts | 281° |
| 2026-05-09 11:53 | 56.21933 | 43.78407 | 266 ft | 3 kts | 281° |
| 2026-05-09 11:53 | 56.21940 | 43.78346 | 266 ft | 7 kts | 281° |
| 2026-05-09 11:54 | 56.21957 | 43.78248 | 266 ft | 9 kts | 307° |
| 2026-05-09 11:54 | 56.22001 | 43.78222 | 266 ft | 0 kts | 7° |
| 2026-05-09 11:55 | 56.22066 | 43.78245 | 267 ft | 37 kts | 12° |
| 2026-05-09 11:56 | 56.26560 | 43.79646 | 2091 ft | 164 kts | 9° |
| 2026-05-09 11:56 | 56.27658 | 43.79996 | 2789 ft | 161 kts | 11° |
| 2026-05-09 11:56 | 56.28865 | 43.80444 | 2955 ft | 189 kts | 12° |
| 2026-05-09 11:57 | 56.30208 | 43.80976 | 3317 ft | 207 kts | 12° |
| 2026-05-09 11:57 | 56.31694 | 43.81579 | 3828 ft | 229 kts | 12° |
| 2026-05-09 11:57 | 56.33310 | 43.82231 | 4495 ft | 244 kts | 12° |
| 2026-05-09 11:57 | 56.34974 | 43.82899 | 5545 ft | 247 kts | 12° |
| 2026-05-09 11:58 | 56.36671 | 43.83582 | 6504 ft | 252 kts | 12° |
| 2026-05-09 11:58 | 56.38390 | 43.84343 | 7379 ft | 258 kts | 19° |
| 2026-05-09 11:58 | 56.39919 | 43.86070 | 8268 ft | 266 kts | 43° |
| 2026-05-09 11:58 | 56.40891 | 43.88910 | 9108 ft | 277 kts | 70° |
| 2026-05-09 11:59 | 56.41071 | 43.92472 | 9959 ft | 289 kts | 95° |
| 2026-05-09 11:59 | 56.40749 | 43.96063 | 10613 ft | 302 kts | 99° |
| 2026-05-09 11:59 | 56.40314 | 43.99922 | 11025 ft | 322 kts | 100° |
| 2026-05-09 11:59 | 56.39860 | 44.03922 | 11730 ft | 329 kts | 99° |
| 2026-05-09 12:00 | 56.39416 | 44.08027 | 12466 ft | 337 kts | 99° |
| 2026-05-09 12:00 | 56.38884 | 44.12192 | 13170 ft | 345 kts | 111° |
| 2026-05-09 12:00 | 56.37636 | 44.15912 | 13901 ft | 351 kts | 134° |
| 2026-05-09 12:00 | 56.35704 | 44.18594 | 14533 ft | 352 kts | 158° |
| 2026-05-09 12:01 | 56.33389 | 44.19792 | 15246 ft | 345 kts | 181° |
| 2026-05-09 12:01 | 56.31034 | 44.19386 | 15895 ft | 339 kts | 202° |
| 2026-05-09 12:01 | 56.28821 | 44.17751 | 16146 ft | 353 kts | 212° |
| 2026-05-09 12:01 | 56.26565 | 44.15776 | 16519 ft | 366 kts | 210° |
| 2026-05-09 12:02 | 56.24208 | 44.13953 | 17210 ft | 371 kts | 207° |
| 2026-05-09 12:02 | 56.21769 | 44.12331 | 17879 ft | 377 kts | 205° |
| 2026-05-09 12:02 | 56.19261 | 44.10834 | 18544 ft | 382 kts | 203° |
| 2026-05-09 12:02 | 56.16708 | 44.09396 | 19164 ft | 385 kts | 203° |
| 2026-05-09 12:03 | 56.14152 | 44.07977 | 19812 ft | 385 kts | 205° |
| 2026-05-09 12:03 | 56.11773 | 44.05910 | 20413 ft | 377 kts | 220° |
| 2026-05-09 12:03 | 56.09835 | 44.02820 | 21003 ft | 370 kts | 235° |
| 2026-05-09 12:03 | 56.08404 | 43.99039 | 21592 ft | 368 kts | 243° |
| 2026-05-09 12:04 | 56.07070 | 43.95095 | 22179 ft | 371 kts | 243° |
| 2026-05-09 12:04 | 56.05720 | 43.91124 | 22757 ft | 374 kts | 243° |
| 2026-05-09 12:04 | 56.04356 | 43.87133 | 23329 ft | 378 kts | 243° |
| 2026-05-09 12:04 | 56.02975 | 43.83114 | 23874 ft | 381 kts | 242° |
| 2026-05-09 12:05 | 56.01583 | 43.79075 | 24352 ft | 383 kts | 242° |
| 2026-05-09 12:05 | 56.00179 | 43.75013 | 24847 ft | 384 kts | 242° |
| 2026-05-09 12:05 | 55.98789 | 43.70998 | 25309 ft | 386 kts | 242° |
| 2026-05-09 12:05 | 55.97347 | 43.66839 | 25785 ft | 388 kts | 242° |
| 2026-05-09 12:06 | 55.95922 | 43.62734 | 26256 ft | 390 kts | 242° |
| 2026-05-09 12:06 | 55.94509 | 43.58674 | 26698 ft | 392 kts | 242° |
| 2026-05-09 12:06 | 55.93062 | 43.54523 | 27130 ft | 394 kts | 242° |
| 2026-05-09 12:06 | 55.91614 | 43.50373 | 27566 ft | 396 kts | 242° |
| 2026-05-09 12:07 | 55.90155 | 43.46198 | 27983 ft | 397 kts | 241° |
| 2026-05-09 12:07 | 55.88686 | 43.42004 | 28377 ft | 399 kts | 241° |
| 2026-05-09 12:07 | 55.87211 | 43.37796 | 28770 ft | 401 kts | 241° |
| 2026-05-09 12:07 | 55.85730 | 43.33580 | 29149 ft | 403 kts | 241° |
| 2026-05-09 12:08 | 55.84241 | 43.29334 | 29514 ft | 404 kts | 243° |
| 2026-05-09 12:08 | 55.83037 | 43.24829 | 29860 ft | 403 kts | 253° |
| 2026-05-09 12:08 | 55.82379 | 43.19995 | 30202 ft | 403 kts | 264° |
| 2026-05-09 12:08 | 55.82299 | 43.15014 | 30502 ft | 404 kts | 275° |
| 2026-05-09 12:09 | 55.82795 | 43.10084 | 30815 ft | 407 kts | 285° |
| 2026-05-09 12:09 | 55.83849 | 43.05396 | 31102 ft | 412 kts | 295° |
| 2026-05-09 12:09 | 55.85410 | 43.01080 | 31403 ft | 416 kts | 302° |
| 2026-05-09 12:10 | 55.90400 | 42.88488 | 32665 ft | 412 kts | 301° |
| 2026-05-09 12:10 | 55.92041 | 42.84303 | 33051 ft | 411 kts | 301° |
| 2026-05-09 12:10 | 55.93672 | 42.80130 | 33432 ft | 410 kts | 301° |
| 2026-05-09 12:11 | 55.95298 | 42.75962 | 33811 ft | 409 kts | 301° |
| 2026-05-09 12:11 | 55.96922 | 42.71796 | 34168 ft | 408 kts | 301° |
| 2026-05-09 12:11 | 55.98539 | 42.67635 | 34259 ft | 407 kts | 301° |
| 2026-05-09 12:12 | 56.01710 | 42.59292 | 34261 ft | 404 kts | 296° |
| 2026-05-09 12:12 | 56.03705 | 42.50041 | 34261 ft | 399 kts | 279° |
| 2026-05-09 12:13 | 56.04102 | 42.40179 | 34258 ft | 398 kts | 270° |
| 2026-05-09 12:13 | 56.04160 | 42.30270 | 34257 ft | 399 kts | 270° |
| 2026-05-09 12:14 | 56.04216 | 42.20326 | 34268 ft | 400 kts | 270° |
| 2026-05-09 12:14 | 56.04256 | 42.10424 | 34266 ft | 402 kts | 270° |
| 2026-05-09 12:15 | 56.04285 | 42.00954 | 34272 ft | 403 kts | 270° |
| 2026-05-09 12:15 | 56.04306 | 41.90930 | 34271 ft | 404 kts | 269° |
| 2026-05-09 12:16 | 56.04320 | 41.80877 | 34270 ft | 404 kts | 269° |
| 2026-05-09 12:16 | 56.04325 | 41.70804 | 34271 ft | 405 kts | 269° |
| 2026-05-09 12:17 | 56.04322 | 41.60735 | 34273 ft | 406 kts | 269° |
| 2026-05-09 12:17 | 56.04310 | 41.50613 | 34269 ft | 406 kts | 269° |
| 2026-05-09 12:18 | 56.04291 | 41.40494 | 34267 ft | 407 kts | 269° |
| 2026-05-09 12:18 | 56.04265 | 41.30363 | 34269 ft | 407 kts | 269° |
| 2026-05-09 12:19 | 56.04228 | 41.20226 | 34268 ft | 408 kts | 269° |
| 2026-05-09 12:19 | 56.04193 | 41.11804 | 34266 ft | 408 kts | 269° |
| 2026-05-09 12:20 | 56.04142 | 41.01647 | 34264 ft | 409 kts | 269° |
| 2026-05-09 12:20 | 56.04083 | 40.91486 | 34264 ft | 409 kts | 269° |
| 2026-05-09 12:21 | 56.04005 | 40.79654 | 34260 ft | 410 kts | 269° |
| 2026-05-09 12:21 | 56.03942 | 40.71107 | 34261 ft | 410 kts | 268° |
| 2026-05-09 12:22 | 56.03856 | 40.60903 | 34267 ft | 411 kts | 268° |
| 2026-05-09 12:22 | 56.03761 | 40.50673 | 34264 ft | 411 kts | 268° |
| 2026-05-09 12:23 | 56.03658 | 40.40434 | 34267 ft | 412 kts | 268° |
| 2026-05-09 12:23 | 56.03547 | 40.30179 | 34266 ft | 413 kts | 268° |
| 2026-05-09 12:24 | 56.03427 | 40.19920 | 34270 ft | 413 kts | 268° |
| 2026-05-09 12:24 | 56.03300 | 40.09699 | 34268 ft | 414 kts | 268° |
| 2026-05-09 12:25 | 56.03190 | 40.01372 | 34268 ft | 415 kts | 268° |
| 2026-05-09 12:25 | 56.03045 | 39.91115 | 34268 ft | 415 kts | 268° |
| 2026-05-09 12:26 | 56.02891 | 39.80789 | 34267 ft | 416 kts | 268° |
| 2026-05-09 12:26 | 56.02726 | 39.70449 | 34268 ft | 416 kts | 266° |
| 2026-05-09 12:27 | 56.01988 | 39.60711 | 34268 ft | 416 kts | 257° |
| 2026-05-09 12:27 | 56.00285 | 39.50811 | 34272 ft | 417 kts | 252° |
| 2026-05-09 12:28 | 55.98465 | 39.40963 | 34271 ft | 418 kts | 252° |
| 2026-05-09 12:28 | 55.96639 | 39.31113 | 34270 ft | 418 kts | 252° |
| 2026-05-09 12:29 | 55.94800 | 39.21261 | 34267 ft | 418 kts | 252° |
| 2026-05-09 12:29 | 55.92947 | 39.11400 | 34267 ft | 419 kts | 252° |
| 2026-05-09 12:30 | 55.91087 | 39.01554 | 34270 ft | 419 kts | 251° |
| 2026-05-09 12:30 | 55.88296 | 38.86852 | 34266 ft | 419 kts | 251° |
| 2026-05-09 12:31 | 55.85471 | 38.72102 | 34275 ft | 419 kts | 251° |
| 2026-05-09 12:32 | 55.83579 | 38.62292 | 34272 ft | 419 kts | 251° |
| 2026-05-09 12:32 | 55.81679 | 38.52494 | 34270 ft | 419 kts | 251° |
| 2026-05-09 12:33 | 55.79781 | 38.42742 | 34262 ft | 417 kts | 251° |
| 2026-05-09 12:33 | 55.77880 | 38.33023 | 34261 ft | 417 kts | 251° |
| 2026-05-09 12:34 | 55.75966 | 38.23304 | 34262 ft | 417 kts | 251° |
| 2026-05-09 12:34 | 55.74046 | 38.13598 | 34263 ft | 416 kts | 250° |
| 2026-05-09 12:35 | 55.72126 | 38.03934 | 34261 ft | 416 kts | 250° |
| 2026-05-09 12:35 | 55.70195 | 37.94261 | 34264 ft | 416 kts | 250° |
| 2026-05-09 12:36 | 55.68256 | 37.84595 | 34257 ft | 416 kts | 250° |
| 2026-05-09 12:36 | 55.66312 | 37.74953 | 34259 ft | 415 kts | 250° |
| 2026-05-09 12:37 | 55.64556 | 37.65209 | 34247 ft | 415 kts | 256° |
| 2026-05-09 12:37 | 55.63261 | 37.55311 | 34239 ft | 416 kts | 256° |
| 2026-05-09 12:38 | 55.61946 | 37.45347 | 34239 ft | 416 kts | 256° |
| 2026-05-09 12:38 | 55.60613 | 37.35416 | 34242 ft | 416 kts | 256° |
| 2026-05-09 12:39 | 55.59262 | 37.25467 | 34244 ft | 416 kts | 256° |
| 2026-05-09 12:39 | 55.57908 | 37.15525 | 34245 ft | 416 kts | 256° |
| 2026-05-09 12:40 | 55.56546 | 37.05589 | 34242 ft | 416 kts | 256° |
| 2026-05-09 12:40 | 55.55175 | 36.95677 | 34241 ft | 415 kts | 255° |
| 2026-05-09 12:41 | 55.53753 | 36.85810 | 34237 ft | 414 kts | 251° |
| 2026-05-09 12:41 | 55.51327 | 36.76618 | 34233 ft | 414 kts | 238° |
| 2026-05-09 12:42 | 55.47747 | 36.68662 | 34230 ft | 414 kts | 230° |
| 2026-05-09 12:42 | 55.43984 | 36.60993 | 34227 ft | 414 kts | 231° |
| 2026-05-09 12:43 | 55.40216 | 36.53313 | 34231 ft | 414 kts | 231° |
| 2026-05-09 12:43 | 55.36441 | 36.45653 | 34231 ft | 414 kts | 231° |
| 2026-05-09 12:44 | 55.32667 | 36.38019 | 34230 ft | 414 kts | 231° |
| 2026-05-09 12:44 | 55.28886 | 36.30400 | 34230 ft | 414 kts | 231° |
| 2026-05-09 12:45 | 55.25100 | 36.22790 | 34229 ft | 414 kts | 231° |
| 2026-05-09 12:45 | 55.21336 | 36.15252 | 34234 ft | 414 kts | 231° |
| 2026-05-09 12:46 | 55.17548 | 36.07686 | 34230 ft | 413 kts | 231° |
| 2026-05-09 12:46 | 55.13748 | 36.00123 | 34227 ft | 413 kts | 231° |
| 2026-05-09 12:47 | 55.09953 | 35.92589 | 34234 ft | 413 kts | 231° |
| 2026-05-09 12:47 | 55.06151 | 35.85088 | 34229 ft | 412 kts | 231° |
| 2026-05-09 12:48 | 55.02344 | 35.77609 | 34222 ft | 412 kts | 231° |
| 2026-05-09 12:48 | 54.98535 | 35.70145 | 34225 ft | 412 kts | 231° |
| 2026-05-09 12:49 | 54.94727 | 35.62705 | 34217 ft | 411 kts | 231° |
| 2026-05-09 12:49 | 54.90915 | 35.55279 | 34221 ft | 411 kts | 231° |
| 2026-05-09 12:50 | 54.87101 | 35.47872 | 34217 ft | 411 kts | 231° |
| 2026-05-09 12:50 | 54.83291 | 35.40497 | 34216 ft | 410 kts | 231° |
| 2026-05-09 12:51 | 54.79479 | 35.33139 | 34208 ft | 410 kts | 231° |
| 2026-05-09 12:51 | 54.75876 | 35.25560 | 34212 ft | 405 kts | 240° |
| 2026-05-09 12:52 | 54.73850 | 35.16579 | 34201 ft | 401 kts | 259° |
| 2026-05-09 12:52 | 54.73498 | 35.06954 | 34196 ft | 401 kts | 268° |
| 2026-05-09 12:53 | 54.73351 | 34.97368 | 34189 ft | 401 kts | 267° |
| 2026-05-09 12:53 | 54.73180 | 34.87678 | 34188 ft | 400 kts | 267° |
| 2026-05-09 12:54 | 54.73002 | 34.78042 | 34187 ft | 400 kts | 267° |
| 2026-05-09 12:54 | 54.72819 | 34.68500 | 34191 ft | 400 kts | 267° |
| 2026-05-09 12:55 | 54.72631 | 34.58918 | 34188 ft | 399 kts | 267° |
| 2026-05-09 12:55 | 54.72434 | 34.49299 | 34188 ft | 399 kts | 267° |
| 2026-05-09 12:56 | 54.72227 | 34.39719 | 34189 ft | 399 kts | 267° |
| 2026-05-09 12:56 | 54.72012 | 34.30138 | 34189 ft | 398 kts | 266° |
| 2026-05-09 12:57 | 54.71786 | 34.20572 | 34181 ft | 398 kts | 266° |
| 2026-05-09 12:57 | 54.71557 | 34.11016 | 34181 ft | 398 kts | 266° |
| 2026-05-09 12:58 | 54.71321 | 34.01466 | 34176 ft | 397 kts | 266° |
| 2026-05-09 12:58 | 54.71077 | 33.91922 | 34175 ft | 397 kts | 266° |
| 2026-05-09 12:59 | 54.70701 | 33.82410 | 34172 ft | 396 kts | 262° |
| 2026-05-09 12:59 | 54.70091 | 33.72944 | 34169 ft | 396 kts | 263° |
| 2026-05-09 13:00 | 54.69497 | 33.63485 | 34168 ft | 396 kts | 263° |
| 2026-05-09 13:00 | 54.68894 | 33.54104 | 34169 ft | 395 kts | 263° |
| 2026-05-09 13:01 | 54.68277 | 33.44670 | 34170 ft | 395 kts | 262° |
| 2026-05-09 13:01 | 54.67653 | 33.35257 | 34163 ft | 394 kts | 262° |
| 2026-05-09 13:02 | 54.67022 | 33.25860 | 34164 ft | 393 kts | 262° |
| 2026-05-09 13:02 | 54.66385 | 33.16484 | 34157 ft | 393 kts | 262° |
| 2026-05-09 13:03 | 54.65743 | 33.07123 | 34157 ft | 393 kts | 262° |
| 2026-05-09 13:03 | 54.65093 | 32.97764 | 34156 ft | 392 kts | 262° |
| 2026-05-09 13:04 | 54.64436 | 32.88429 | 34152 ft | 391 kts | 262° |
| 2026-05-09 13:04 | 54.63773 | 32.79096 | 34148 ft | 392 kts | 262° |
| 2026-05-09 13:05 | 54.63102 | 32.69760 | 34144 ft | 392 kts | 262° |
| 2026-05-09 13:05 | 54.62423 | 32.60419 | 34142 ft | 392 kts | 261° |
| 2026-05-09 13:06 | 54.61739 | 32.51096 | 34133 ft | 392 kts | 261° |
| 2026-05-09 13:06 | 54.61047 | 32.41774 | 34134 ft | 391 kts | 261° |
| 2026-05-09 13:07 | 54.60353 | 32.32531 | 34128 ft | 391 kts | 261° |
| 2026-05-09 13:07 | 54.59647 | 32.23230 | 34126 ft | 391 kts | 261° |
| 2026-05-09 13:08 | 54.58934 | 32.13927 | 34120 ft | 391 kts | 261° |
| 2026-05-09 13:08 | 54.58330 | 32.06135 | 34118 ft | 391 kts | 261° |
| 2026-05-09 13:09 | 54.57605 | 31.96838 | 34114 ft | 392 kts | 261° |
| 2026-05-09 13:09 | 54.56872 | 31.87535 | 34105 ft | 392 kts | 260° |
| 2026-05-09 13:10 | 54.56128 | 31.78227 | 34101 ft | 392 kts | 260° |
| 2026-05-09 13:10 | 54.55377 | 31.68910 | 34105 ft | 393 kts | 260° |
| 2026-05-09 13:11 | 54.54622 | 31.59583 | 34108 ft | 393 kts | 260° |
| 2026-05-09 13:11 | 54.53859 | 31.50247 | 34109 ft | 394 kts | 260° |
| 2026-05-09 13:12 | 54.53082 | 31.40899 | 34103 ft | 395 kts | 260° |
| 2026-05-09 13:12 | 54.52303 | 31.31595 | 34104 ft | 395 kts | 259° |
| 2026-05-09 13:13 | 54.51516 | 31.22224 | 34090 ft | 396 kts | 259° |
| 2026-05-09 13:13 | 54.50713 | 31.12838 | 34094 ft | 397 kts | 258° |
| 2026-05-09 13:14 | 54.49448 | 31.03637 | 34090 ft | 396 kts | 251° |
| 2026-05-09 13:16 | 54.42624 | 30.67544 | 34081 ft | 398 kts | 251° |
| 2026-05-09 13:16 | 54.40897 | 30.58504 | 34084 ft | 399 kts | 250° |
| 2026-05-09 13:17 | 54.39162 | 30.49463 | 34028 ft | 399 kts | 250° |
| 2026-05-09 13:17 | 54.38291 | 30.44939 | 33582 ft | 400 kts | 250° |
| 2026-05-09 13:17 | 54.37413 | 30.40390 | 32780 ft | 403 kts | 250° |
| 2026-05-09 13:17 | 54.36526 | 30.35808 | 31782 ft | 408 kts | 250° |
| 2026-05-09 13:18 | 54.35627 | 30.31180 | 30977 ft | 408 kts | 250° |
| 2026-05-09 13:18 | 54.34736 | 30.26605 | 30514 ft | 400 kts | 250° |
| 2026-05-09 13:18 | 54.33861 | 30.22122 | 29996 ft | 394 kts | 249° |
| 2026-05-09 13:18 | 54.32999 | 30.17711 | 29427 ft | 387 kts | 249° |
| 2026-05-09 13:19 | 54.32151 | 30.13376 | 28891 ft | 381 kts | 249° |
| 2026-05-09 13:19 | 54.31328 | 30.09171 | 28371 ft | 375 kts | 249° |
| 2026-05-09 13:19 | 54.30499 | 30.04953 | 27839 ft | 370 kts | 249° |
| 2026-05-09 13:19 | 54.29683 | 30.00817 | 27337 ft | 365 kts | 249° |
| 2026-05-09 13:20 | 54.28865 | 29.96677 | 26799 ft | 360 kts | 249° |
| 2026-05-09 13:20 | 54.28075 | 29.92693 | 26303 ft | 356 kts | 249° |
| 2026-05-09 13:20 | 54.27282 | 29.88694 | 25834 ft | 352 kts | 249° |
| 2026-05-09 13:20 | 54.26495 | 29.84732 | 25218 ft | 352 kts | 249° |
| 2026-05-09 13:21 | 54.25714 | 29.80807 | 24776 ft | 347 kts | 249° |
| 2026-05-09 13:21 | 54.24936 | 29.76903 | 24175 ft | 348 kts | 249° |
| 2026-05-09 13:21 | 54.24140 | 29.72926 | 23041 ft | 361 kts | 249° |
| 2026-05-09 13:21 | 54.23315 | 29.68817 | 22123 ft | 366 kts | 249° |
| 2026-05-09 13:22 | 54.22493 | 29.64722 | 21584 ft | 361 kts | 249° |
| 2026-05-09 13:22 | 54.21686 | 29.60712 | 21298 ft | 355 kts | 249° |
| 2026-05-09 13:22 | 54.20879 | 29.56718 | 20959 ft | 359 kts | 249° |
| 2026-05-09 13:23 | 54.17627 | 29.40678 | 18856 ft | 353 kts | 249° |
| 2026-05-09 13:23 | 54.16821 | 29.36731 | 18307 ft | 350 kts | 248° |
| 2026-05-09 13:24 | 54.16009 | 29.32777 | 17762 ft | 346 kts | 248° |
| 2026-05-09 13:24 | 54.15219 | 29.28930 | 17240 ft | 342 kts | 248° |
| 2026-05-09 13:24 | 54.14439 | 29.25141 | 16725 ft | 338 kts | 248° |
| 2026-05-09 13:24 | 54.13678 | 29.21356 | 16221 ft | 335 kts | 251° |
| 2026-05-09 13:25 | 54.13163 | 29.17496 | 15718 ft | 334 kts | 258° |
| 2026-05-09 13:25 | 54.12914 | 29.13560 | 15212 ft | 333 kts | 262° |
| 2026-05-09 13:25 | 54.12464 | 29.05748 | 14202 ft | 329 kts | 261° |
| 2026-05-09 13:26 | 54.12232 | 29.01877 | 13687 ft | 328 kts | 261° |
| 2026-05-09 13:26 | 54.12000 | 28.98029 | 13175 ft | 325 kts | 261° |
| 2026-05-09 13:26 | 54.11768 | 28.94209 | 12682 ft | 322 kts | 261° |
| 2026-05-09 13:26 | 54.11541 | 28.90479 | 12199 ft | 320 kts | 261° |
| 2026-05-09 13:27 | 54.11314 | 28.86763 | 11972 ft | 309 kts | 261° |
| 2026-05-09 13:27 | 54.11103 | 28.83192 | 11848 ft | 296 kts | 262° |
| 2026-05-09 13:27 | 54.10917 | 28.79772 | 11734 ft | 283 kts | 262° |
| 2026-05-09 13:27 | 54.10743 | 28.76494 | 11633 ft | 271 kts | 262° |
| 2026-05-09 13:28 | 54.10574 | 28.73370 | 11534 ft | 259 kts | 262° |
| 2026-05-09 13:28 | 54.10409 | 28.70366 | 11343 ft | 252 kts | 262° |
| 2026-05-09 13:28 | 54.10243 | 28.67404 | 10977 ft | 251 kts | 262° |
| 2026-05-09 13:28 | 54.10077 | 28.64458 | 10706 ft | 247 kts | 262° |
| 2026-05-09 13:29 | 54.09914 | 28.61588 | 10525 ft | 243 kts | 262° |
| 2026-05-09 13:29 | 54.09749 | 28.58704 | 10353 ft | 246 kts | 262° |
| 2026-05-09 13:29 | 54.09584 | 28.55820 | 10170 ft | 243 kts | 262° |
| 2026-05-09 13:29 | 54.09529 | 28.54850 | 10106 ft | 243 kts | 262° |
| 2026-05-09 13:30 | 54.09378 | 28.52239 | 9949 ft | 244 kts | 262° |
| 2026-05-09 13:30 | 54.09213 | 28.49375 | 9759 ft | 242 kts | 262° |
| 2026-05-09 13:30 | 54.09049 | 28.46520 | 9586 ft | 242 kts | 262° |
| 2026-05-09 13:31 | 54.08884 | 28.43671 | 9410 ft | 241 kts | 262° |
| 2026-05-09 13:31 | 54.08719 | 28.40831 | 9236 ft | 240 kts | 261° |
| 2026-05-09 13:31 | 54.08554 | 28.38006 | 9062 ft | 240 kts | 261° |
| 2026-05-09 13:31 | 54.08388 | 28.35182 | 8890 ft | 240 kts | 262° |
| 2026-05-09 13:32 | 54.08223 | 28.32354 | 8717 ft | 239 kts | 262° |
| 2026-05-09 13:32 | 54.07892 | 28.26736 | 8371 ft | 238 kts | 261° |
| 2026-05-09 13:32 | 54.07726 | 28.23942 | 8199 ft | 237 kts | 261° |
| 2026-05-09 13:33 | 54.07558 | 28.21141 | 8024 ft | 237 kts | 261° |
| 2026-05-09 13:33 | 54.07391 | 28.18357 | 7854 ft | 236 kts | 261° |
| 2026-05-09 13:33 | 54.07224 | 28.15586 | 7677 ft | 235 kts | 261° |
| 2026-05-09 13:33 | 54.07056 | 28.12817 | 7515 ft | 235 kts | 261° |
| 2026-05-09 13:34 | 54.06888 | 28.10058 | 7343 ft | 234 kts | 261° |
| 2026-05-09 13:34 | 54.06762 | 28.07334 | 7170 ft | 235 kts | 271° |
| 2026-05-09 13:34 | 54.07287 | 28.04652 | 7001 ft | 242 kts | 302° |
| 2026-05-09 13:34 | 54.08463 | 28.02620 | 6746 ft | 247 kts | 316° |
| 2026-05-09 13:35 | 54.09778 | 28.00725 | 6496 ft | 245 kts | 317° |
| 2026-05-09 13:35 | 54.11078 | 27.98881 | 6405 ft | 245 kts | 317° |
| 2026-05-09 13:35 | 54.12386 | 27.97004 | 6236 ft | 244 kts | 316° |
| 2026-05-09 13:35 | 54.13674 | 27.95133 | 6060 ft | 243 kts | 316° |
| 2026-05-09 13:36 | 54.14930 | 27.93207 | 5838 ft | 241 kts | 307° |
| 2026-05-09 13:36 | 54.15662 | 27.90694 | 5393 ft | 239 kts | 277° |
| 2026-05-09 13:36 | 54.15539 | 27.87885 | 4856 ft | 241 kts | 246° |
| 2026-05-09 13:36 | 54.14571 | 27.85665 | 4611 ft | 233 kts | 216° |
| 2026-05-09 13:37 | 54.13101 | 27.84645 | 4369 ft | 229 kts | 192° |
| 2026-05-09 13:37 | 54.11554 | 27.84057 | 4089 ft | 227 kts | 195° |
| 2026-05-09 13:37 | 54.10038 | 27.83342 | 3805 ft | 225 kts | 198° |
| 2026-05-09 13:37 | 54.08565 | 27.82535 | 3523 ft | 221 kts | 199° |
| 2026-05-09 13:38 | 54.07118 | 27.81749 | 3241 ft | 216 kts | 192° |
| 2026-05-09 13:38 | 54.05633 | 27.81890 | 3024 ft | 226 kts | 164° |
| 2026-05-09 13:38 | 54.04198 | 27.83133 | 2992 ft | 232 kts | 148° |
| 2026-05-09 13:38 | 54.02980 | 27.84759 | 2989 ft | 218 kts | 142° |
| 2026-05-09 13:39 | 54.01885 | 27.86409 | 2991 ft | 203 kts | 142° |
| 2026-05-09 13:39 | 54.00874 | 27.87918 | 2991 ft | 187 kts | 143° |
| 2026-05-09 13:39 | 53.99868 | 27.89412 | 3002 ft | 189 kts | 142° |
| 2026-05-09 13:39 | 53.98951 | 27.90792 | 2916 ft | 166 kts | 143° |
| 2026-05-09 13:40 | 53.98112 | 27.92041 | 2708 ft | 156 kts | 144° |
| 2026-05-09 13:40 | 53.97326 | 27.93215 | 2506 ft | 144 kts | 144° |
| 2026-05-09 13:40 | 53.96608 | 27.94284 | 2312 ft | 131 kts | 144° |
| 2026-05-09 13:40 | 53.95917 | 27.95308 | 2134 ft | 133 kts | 143° |
| 2026-05-09 13:41 | 53.95222 | 27.96345 | 1940 ft | 132 kts | 143° |
| 2026-05-09 13:41 | 53.94531 | 27.97371 | 1770 ft | 132 kts | 143° |
| 2026-05-09 13:41 | 53.93840 | 27.98403 | 1594 ft | 132 kts | 142° |
| 2026-05-09 13:41 | 53.93156 | 27.99422 | 1398 ft | 130 kts | 142° |
| 2026-05-09 13:42 | 53.92473 | 28.00439 | 1214 ft | 130 kts | 142° |
| 2026-05-09 13:42 | 53.91791 | 28.01451 | 1028 ft | 131 kts | 141° |
| 2026-05-09 13:42 | 53.91108 | 28.02483 | 839 ft | 129 kts | 139° |
| 2026-05-09 13:42 | 53.90442 | 28.03464 | 654 ft | 125 kts | 141° |
| 2026-05-09 13:43 | 53.89913 | 28.04225 | 636 ft | 75 kts | 139° |
| 2026-05-09 13:43 | 53.89576 | 28.04723 | 633 ft | 58 kts | 137° |
| 2026-05-09 13:43 | 53.89329 | 28.05093 | 639 ft | 27 kts | 139° |
| 2026-05-09 13:43 | 53.89213 | 28.05264 | 634 ft | 21 kts | 139° |
| 2026-05-09 13:44 | 53.89103 | 28.05425 | 633 ft | 22 kts | 139° |
| 2026-05-09 13:44 | 53.88985 | 28.05597 | 633 ft | 22 kts | 139° |
| 2026-05-09 13:44 | 53.88864 | 28.05742 | 642 ft | 19 kts | 159° |
| 2026-05-09 13:44 | 53.88740 | 28.05818 | 639 ft | 19 kts | 165° |
| 2026-05-09 13:45 | 53.88644 | 28.05822 | 642 ft | 6 kts | 216° |
| 2026-05-09 13:45 | 53.88643 | 28.05819 | 642 ft | 0 kts | 220° |
| 2026-05-09 13:45 | 53.88641 | 28.05817 | 642 ft | 2 kts | 220° |
| 2026-05-09 13:46 | 53.88630 | 28.05785 | 637 ft | 4 kts | 259° |
| 2026-05-09 13:46 | 53.88639 | 28.05725 | 643 ft | 7 kts | 305° |
| 2026-05-09 13:46 | 53.88680 | 28.05656 | 635 ft | 10 kts | 317° |
| 2026-05-09 13:46 | 53.88734 | 28.05580 | 635 ft | 9 kts | 322° |
| 2026-05-09 13:47 | 53.88771 | 28.05528 | 635 ft | 7 kts | 319° |
| 2026-05-09 13:47 | 53.88818 | 28.05458 | 635 ft | 11 kts | 319° |
| 2026-05-09 13:47 | 53.88879 | 28.05368 | 635 ft | 13 kts | 316° |
| 2026-05-09 13:47 | 53.88954 | 28.05252 | 635 ft | 16 kts | 319° |
| 2026-05-09 13:48 | 53.89039 | 28.05126 | 639 ft | 17 kts | 319° |
| 2026-05-09 13:48 | 53.89128 | 28.04993 | 635 ft | 17 kts | 319° |
| 2026-05-09 13:48 | 53.89181 | 28.04847 | 638 ft | 14 kts | 241° |
| 2026-05-09 13:48 | 53.89118 | 28.04711 | 635 ft | 16 kts | 227° |
| 2026-05-09 13:49 | 53.89049 | 28.04559 | 635 ft | 15 kts | 257° |
| 2026-05-09 13:49 | 53.89080 | 28.04444 | 635 ft | 9 kts | 276° |
| 2026-05-09 13:49 | 53.89054 | 28.04347 | 635 ft | 10 kts | 227° |
| 2026-05-09 13:49 | 53.88998 | 28.04248 | 637 ft | 13 kts | 229° |
| 2026-05-09 13:50 | 53.88934 | 28.04123 | 635 ft | 15 kts | 229° |
| 2026-05-09 13:50 | 53.88866 | 28.03981 | 635 ft | 14 kts | 250° |
| 2026-05-09 13:50 | 53.88910 | 28.03839 | 635 ft | 15 kts | 300° |
| 2026-05-09 13:50 | 53.88902 | 28.03695 | 639 ft | 12 kts | 225° |
| 2026-05-09 13:51 | 53.88906 | 28.03591 | 639 ft | 7 kts | 310° |
| 2026-05-09 13:51 | 53.88913 | 28.03578 | 635 ft | 0 kts | 314° |